Rechercher aéroport 
image banner adimage banner adimage banner ad
image banner ad

34CL - Burney Service Center

Situé à Burney, United States

ICAO - 34CL, IATA -

Données fournies par Airmate  

Information générale

Coordonnées: N40°53'37" W121°39'5"
Élévation : 3116 feet MSL.
Variation magnétique : 17° East
Voir autres Aéroports à California

Données opérationnelles

Special qualification required
Heure actuelle UTC:
Heure actuelle locale:
Météo à : KRDD - Redding Muni ( 69 km )
METAR: KRDD 210253Z AUTO 35008KT 10SM FU CLR 31/M01 A2994 RMK AO2 SLP133 T03061011 53003
TAF: KRDD 202320Z 2100/2124 35017G26KT P6SM SKC FM210200 35007G14KT P6SM SKC FM210500 36005KT P6SM SKC
Voir NOTAMs / SUP AIP / TFR affectant cet aéroport [VIEW]
Fréquences de communication: [VIEW]

Pistes:

Coordonnées de l'aéroport

Adresse: Burney United States

Vue satellite de 34CL